Sand Point Airport
PASD : now visible

Airfield :











YOU CAN JOIN US ON...

 
LOGIN :

Register | Disclaimer

   EN    FR    IT 

 









Legend :    VFR   Marginal VFR   IFR   Intensive IFR   Very Intensive IFR
Visi :
Ceiling :
>= 8 km
>= 3000ft
5 to 8 km
1000 to 3000 ft
1500m to 5 km
500 to 1000 ft
800 to 1500m
200 to 500 ft
< 800m
< 200 ft
Symbols :   Thunderstorms  Fog  Heavy snow  Heavy precipitations  Wind > 20 kt






- Airport Elevation : 21 ft
- IATA code : SDP


PASD - Sand Point

CURRENT METAR :
  • 222356Z 19012KT 10SM FEW022 SCT026 BKN035 05/01 A2965 RMK AO2 SLP042 6//// T00500011 10050 20033 56008 PNO $

EXPIRED METARs :
  • 222256Z 20018G26KT 10SM FEW021 SCT027 BKN034 04/01 A2966 RMK AO2 PK WND 21026/2249 SLP045 T00440011 PNO $
  • 222242Z 19017KT 10SM FEW021 SCT026 BKN032 05/02 A2966 RMK AO2 PNO $
  • 222224Z 20019KT 10SM FEW019 SCT024 BKN031 05/02 A2966 RMK AO2 PNO $
  • 222156Z 19016KT 10SM FEW019 SCT024 BKN031 05/02 A2966 RMK AO2 RAE25 SLP046 T00500022 PNO $
  • 222149Z 19017KT 10SM FEW018 SCT022 BKN029 05/02 A2966 RMK AO2 RAE25 PNO $
  • 222144Z 19016KT 10SM FEW014 SCT019 BKN028 05/02 A2966 RMK AO2 RAE25 PNO $
  • 222125Z 19017KT 10SM FEW014 SCT019 BKN028 05/03 A2967 RMK AO2 RAE25 PNO $

TAF PASD
Valid from the 23 at 00:00 until the 24 at 00:00 UTC


222340Z 2300/2324 19012G22KT P6SM VCSH FEW020 BKN035
FM230200 19015G25KT P6SM VCSH SCT025 OVC050
FM230900 19015G25KT P6SM -SHRA BKN025
FM231800 24025G35KT P6SM -SHRA BKN025 AMD LTD TO CLD VIS AND WIND
PAZA FIR / North America



MET'MAP, your aeronautical weather chart ! - Copyright ORBIFLY December 2007 - Disclaimer

ORBIFLY MET'MAP TEAM :

Programming & Development : Alexandra Zaïnal
Concept & original design : Baudouin d'Aumeries
Assistance for programming : Marc-Olivier Méhu
Technical & hardware support : Manuel Goepfert

Contact : metmap@orbifly.com




SOURCES & CREDITS :

   NOAA       Earth
Advisory